createdAt,value
2019-04-22T00:00:57.659Z,33.10
2019-04-22T00:03:39.272Z,33.60
2019-04-22T00:06:30.819Z,34.30
2019-04-22T00:09:12.535Z,34.70
2019-04-22T00:11:35.452Z,35.00
2019-04-22T00:14:07.007Z,36.10
2019-04-22T00:16:47.661Z,37.60
2019-04-22T00:21:46.064Z,38.20
2019-04-22T00:24:20.477Z,36.90
2019-04-22T00:26:51.309Z,36.30
2019-04-22T00:29:42.480Z,35.80
2019-04-22T00:32:00.016Z,35.20
2019-04-22T00:34:48.404Z,34.80
2019-04-22T00:37:25.159Z,34.60
2019-04-22T00:39:53.888Z,34.40
2019-04-22T00:42:46.931Z,34.40
2019-04-22T00:45:22.971Z,34.40
2019-04-22T00:47:54.922Z,34.60
2019-04-22T00:50:24.098Z,35.50
2019-04-22T00:53:04.449Z,35.10
2019-04-22T00:55:31.173Z,36.30
2019-04-22T00:58:08.048Z,36.40
2019-04-22T01:00:37.674Z,36.90
2019-04-22T01:03:21.465Z,37.00
2019-04-22T01:05:46.588Z,37.30
2019-04-22T01:08:37.132Z,37.50
2019-04-22T01:11:03.223Z,37.80
2019-04-22T01:13:24.756Z,38.10
2019-04-22T01:16:09.116Z,38.30
2019-04-22T01:18:36.247Z,38.40
2019-04-22T01:21:20.911Z,38.60
2019-04-22T01:23:41.129Z,38.80
2019-04-22T01:26:09.488Z,38.80
2019-04-22T01:28:43.433Z,38.90
2019-04-22T01:31:08.341Z,38.90
2019-04-22T01:34:06.821Z,39.10
2019-04-22T01:36:59.883Z,39.10
2019-04-22T01:39:37.821Z,39.40
2019-04-22T01:42:21.908Z,39.60
2019-04-22T01:44:40.443Z,39.80
2019-04-22T01:47:13.515Z,39.90
2019-04-22T01:49:47.608Z,40.20
2019-04-22T01:52:15.771Z,40.30
2019-04-22T01:55:10.516Z,40.50
2019-04-22T01:57:37.686Z,40.70
2019-04-22T02:00:06.321Z,40.80
2019-04-22T02:02:44.041Z,41.10
2019-04-22T02:05:22.858Z,41.40
2019-04-22T02:08:02.546Z,41.50
2019-04-22T02:13:06.875Z,41.80
2019-04-22T02:15:41.891Z,42.10
2019-04-22T02:18:10.623Z,42.20
2019-04-22T02:20:45.469Z,42.20
2019-04-22T02:23:47.049Z,42.30
2019-04-22T02:36:30.097Z,43.20
2019-04-22T02:39:07.128Z,43.20
2019-04-22T02:47:07.847Z,43.40
2019-04-22T02:49:31.136Z,43.30
2019-04-22T02:52:27.790Z,43.30
2019-04-22T02:54:55.057Z,43.90
2019-04-22T03:00:18.586Z,43.50
2019-04-22T03:03:03.775Z,43.50
2019-04-22T03:05:33.105Z,43.60
2019-04-22T03:07:58.573Z,43.60
2019-04-22T03:13:21.714Z,43.50
2019-04-22T03:19:05.799Z,43.80
2019-04-22T03:21:31.098Z,43.70
2019-04-22T03:27:27.664Z,43.60
2019-04-22T03:30:50.607Z,43.70
2019-04-22T03:33:11.713Z,43.70
2019-04-22T03:35:54.580Z,43.70
2019-04-22T03:38:29.038Z,43.80
2019-04-22T03:40:46.564Z,43.70
2019-04-22T03:43:16.732Z,43.80
2019-04-22T03:45:42.158Z,43.80
2019-04-22T03:48:16.051Z,43.90
2019-04-22T03:50:55.105Z,44.10
2019-04-22T03:53:43.046Z,44.10
2019-04-22T03:56:10.793Z,44.30
2019-04-22T03:58:41.124Z,44.50
2019-04-22T04:01:30.057Z,44.70
2019-04-22T04:03:57.819Z,44.80
2019-04-22T04:06:45.940Z,45.10
2019-04-22T04:09:19.501Z,45.40
2019-04-22T04:15:05.183Z,45.60
2019-04-22T04:17:50.550Z,45.70
2019-04-22T04:23:07.980Z,46.10
2019-04-22T04:25:48.248Z,46.30
2019-04-22T04:31:19.507Z,46.50
2019-04-22T04:33:54.221Z,46.60
2019-04-22T04:39:18.831Z,47.40
2019-04-22T04:42:46.169Z,46.90
2019-04-22T04:47:49.236Z,47.10
2019-04-22T04:50:25.190Z,47.30
2019-04-22T04:55:22.119Z,47.50
2019-04-22T05:05:26.662Z,47.50
2019-04-22T05:08:01.040Z,47.50
2019-04-22T05:13:55.002Z,47.20
2019-04-22T05:19:15.105Z,47.00
2019-04-22T05:21:53.092Z,46.70
2019-04-22T05:24:26.099Z,46.40
2019-04-22T05:27:14.953Z,46.30
2019-04-22T05:29:35.077Z,46.00
2019-04-22T05:31:57.260Z,45.70
2019-04-22T05:34:31.816Z,45.50
2019-04-22T05:37:07.397Z,45.20
2019-04-22T05:39:35.880Z,45.00
2019-04-22T05:42:08.502Z,44.60
2019-04-22T05:44:47.041Z,44.30
2019-04-22T05:47:14.890Z,44.10
2019-04-22T05:50:05.015Z,43.90
2019-04-22T05:52:34.512Z,43.70
2019-04-22T05:55:53.901Z,43.50
2019-04-22T05:58:39.739Z,43.30
2019-04-22T06:03:50.822Z,43.00
2019-04-22T06:06:46.952Z,42.70
2019-04-22T06:09:28.785Z,41.60
2019-04-22T06:11:58.957Z,41.10
2019-04-22T06:14:39.792Z,41.00
2019-04-22T06:17:20.482Z,40.90
2019-04-22T06:19:50.888Z,40.70
2019-04-22T06:22:37.304Z,40.60
2019-04-22T06:25:38.836Z,40.40
2019-04-22T06:28:03.341Z,40.20
2019-04-22T06:30:53.924Z,39.90
2019-04-22T06:42:01.071Z,39.30
2019-04-22T06:44:43.050Z,39.20
2019-04-22T06:47:25.096Z,39.00
2019-04-22T06:49:52.605Z,38.60
2019-04-22T06:52:30.785Z,38.40
2019-04-22T06:54:59.345Z,38.30
2019-04-22T06:57:52.642Z,38.10
2019-04-22T07:00:35.135Z,38.10
2019-04-22T07:06:20.079Z,38.20
2019-04-22T07:09:15.995Z,38.10
2019-04-22T07:11:28.062Z,37.90
2019-04-22T07:14:09.439Z,37.70
2019-04-22T07:16:54.249Z,37.40
2019-04-22T07:19:20.265Z,37.30
2019-04-22T07:21:57.928Z,37.10
2019-04-22T07:27:04.699Z,37.10
2019-04-22T07:29:40.359Z,37.10
2019-04-22T07:32:29.347Z,36.90
2019-04-22T07:37:37.082Z,36.40
2019-04-22T07:40:06.256Z,36.10
2019-04-22T07:42:36.873Z,35.60
2019-04-22T07:45:10.203Z,35.40
2019-04-22T07:47:44.636Z,35.40
2019-04-22T07:50:25.397Z,35.30
2019-04-22T07:52:46.707Z,35.30
2019-04-22T07:55:52.253Z,35.00
2019-04-22T07:58:29.033Z,34.50
2019-04-22T08:01:04.125Z,34.30
2019-04-22T08:03:37.496Z,34.00
2019-04-22T08:06:13.754Z,34.00
2019-04-22T08:08:38.891Z,33.80
2019-04-22T08:11:30.913Z,33.50
2019-04-22T08:13:46.843Z,33.30
2019-04-22T08:16:16.841Z,33.20
2019-04-22T08:18:59.668Z,32.90
2019-04-22T08:21:21.984Z,32.70
2019-04-22T08:24:03.079Z,32.30
2019-04-22T08:26:32.239Z,32.10
2019-04-22T08:30:17.928Z,31.50
2019-04-22T08:32:41.108Z,31.40
2019-04-22T08:35:18.460Z,31.40
2019-04-22T08:37:50.744Z,31.20
2019-04-22T08:40:32.515Z,31.10
2019-04-22T08:43:06.811Z,31.20
2019-04-22T08:45:33.909Z,30.70
2019-04-22T08:48:00.962Z,30.60
2019-04-22T08:50:39.234Z,30.50
2019-04-22T08:53:19.957Z,30.00
2019-04-22T08:56:01.871Z,30.30
2019-04-22T08:58:27.631Z,29.70
2019-04-22T09:04:10.067Z,29.30
2019-04-22T09:07:23.483Z,29.30
2019-04-22T09:09:44.419Z,29.60
2019-04-22T09:12:32.974Z,29.50
2019-04-22T09:15:16.551Z,29.40
2019-04-22T09:20:26.454Z,29.70
2019-04-22T09:23:03.794Z,29.70
2019-04-22T09:25:29.971Z,29.40
2019-04-22T09:28:10.417Z,29.10
2019-04-22T09:30:51.386Z,29.00
2019-04-22T09:33:14.007Z,28.80
2019-04-22T09:35:52.407Z,28.20
2019-04-22T09:38:31.466Z,28.00
2019-04-22T09:46:35.935Z,27.30
2019-04-22T09:49:12.059Z,27.40
2019-04-22T09:52:08.438Z,27.40
2019-04-22T09:54:53.178Z,27.60
2019-04-22T09:57:21.805Z,28.00
2019-04-22T09:59:57.789Z,27.50
2019-04-22T10:02:58.479Z,27.30
2019-04-22T10:05:40.766Z,27.10
2019-04-22T10:08:16.370Z,27.00
2019-04-22T10:11:00.790Z,26.80
2019-04-22T10:13:36.026Z,26.50
2019-04-22T10:16:19.692Z,26.40
2019-04-22T10:19:01.045Z,26.60
2019-04-22T10:21:44.794Z,26.20
2019-04-22T10:24:26.346Z,26.10
2019-04-22T10:27:02.118Z,25.60
2019-04-22T10:30:39.071Z,25.20
2019-04-22T10:33:01.241Z,24.90
2019-04-22T10:35:18.962Z,24.90
2019-04-22T10:37:52.612Z,24.80
2019-04-22T10:40:50.325Z,25.10
2019-04-22T10:43:23.193Z,25.20
2019-04-22T10:45:59.794Z,25.40
2019-04-22T10:48:36.582Z,25.40
2019-04-22T10:51:52.923Z,25.40
2019-04-22T10:54:25.242Z,25.40
2019-04-22T10:57:08.818Z,25.30
2019-04-22T10:59:50.413Z,25.30
2019-04-22T11:02:37.258Z,25.30
2019-04-22T11:05:16.480Z,25.10
2019-04-22T11:11:12.016Z,24.90
2019-04-22T11:17:13.438Z,24.70
2019-04-22T11:20:53.561Z,24.90
2019-04-22T11:23:24.678Z,25.00
2019-04-22T11:25:59.638Z,24.90
2019-04-22T11:28:31.806Z,25.00
2019-04-22T11:31:02.752Z,25.20
2019-04-22T11:33:32.289Z,25.30
2019-04-22T11:36:17.701Z,25.60
2019-04-22T11:38:56.427Z,25.70
2019-04-22T11:41:25.533Z,25.80
2019-04-22T11:43:59.012Z,25.90
2019-04-22T11:46:31.529Z,26.00
2019-04-22T11:49:03.750Z,26.10
2019-04-22T11:51:33.844Z,26.20
2019-04-22T11:54:03.123Z,26.30
2019-04-22T11:56:34.980Z,26.40
2019-04-22T11:59:08.903Z,26.30
2019-04-22T12:01:46.847Z,26.10
2019-04-22T12:04:17.971Z,25.70
2019-04-22T12:07:08.864Z,25.20
2019-04-22T12:09:41.872Z,24.90
2019-04-22T12:12:23.627Z,24.80
2019-04-22T12:18:01.490Z,24.70
2019-04-22T12:20:35.183Z,24.60
2019-04-22T12:23:15.157Z,24.60
2019-04-22T12:26:18.576Z,24.80
2019-04-22T12:28:53.260Z,24.80
2019-04-22T12:31:27.711Z,24.90
2019-04-22T12:34:08.360Z,25.00
2019-04-22T12:36:58.873Z,25.10
2019-04-22T12:39:39.250Z,25.20
2019-04-22T12:42:11.163Z,25.20
2019-04-22T12:44:51.882Z,25.30
2019-04-22T12:47:42.255Z,25.40
2019-04-22T12:50:25.558Z,25.40
2019-04-22T12:53:02.396Z,25.30
2019-04-22T12:55:39.677Z,25.60
2019-04-22T12:58:15.755Z,25.60
2019-04-22T13:01:06.781Z,25.70
2019-04-22T13:03:38.414Z,25.80
2019-04-22T13:06:27.915Z,25.80
2019-04-22T13:09:04.153Z,25.90
2019-04-22T13:11:38.575Z,25.90
2019-04-22T13:14:36.822Z,26.10
2019-04-22T13:17:08.050Z,26.20
2019-04-22T13:19:40.404Z,26.20
2019-04-22T13:22:16.858Z,26.10
2019-04-22T13:24:50.423Z,26.00
2019-04-22T13:27:37.110Z,25.90
2019-04-22T13:30:36.754Z,26.00
2019-04-22T13:33:14.920Z,25.90
2019-04-22T13:36:12.021Z,25.90
2019-04-22T13:38:43.198Z,25.70
2019-04-22T13:41:24.059Z,25.80
2019-04-22T13:43:49.323Z,26.10
2019-04-22T13:46:20.034Z,26.10
2019-04-22T13:49:17.840Z,26.20
2019-04-22T13:51:52.578Z,26.30
2019-04-22T13:56:49.128Z,26.30
2019-04-22T13:59:33.462Z,26.30
2019-04-22T14:02:30.535Z,26.40
2019-04-22T14:05:28.966Z,26.50
2019-04-22T14:08:26.869Z,26.70
2019-04-22T14:13:56.722Z,27.40
2019-04-22T14:17:01.065Z,27.20
2019-04-22T14:20:04.774Z,27.10
2019-04-22T14:27:27.959Z,26.90
2019-04-22T14:30:06.271Z,27.00
2019-04-22T14:39:33.734Z,27.40
2019-04-22T14:43:17.598Z,27.60
2019-04-22T14:47:12.889Z,27.70
2019-04-22T14:50:35.221Z,27.70
2019-04-22T14:56:49.385Z,27.90
2019-04-22T15:12:45.691Z,29.10
2019-04-22T15:15:59.058Z,28.30
2019-04-22T15:19:20.145Z,27.60
2019-04-22T15:22:20.786Z,26.70
2019-04-22T15:25:32.871Z,26.20
2019-04-22T15:28:11.204Z,26.00
2019-04-22T15:31:01.575Z,25.40
2019-04-22T15:33:47.042Z,24.80
2019-04-22T15:36:42.105Z,24.50
2019-04-22T15:39:48.244Z,24.30
2019-04-22T15:43:10.947Z,24.10
2019-04-22T15:46:37.193Z,23.70
2019-04-22T15:52:47.400Z,23.10
2019-04-22T15:55:11.083Z,22.60
2019-04-22T15:57:44.012Z,22.40
2019-04-22T16:00:48.715Z,22.40
2019-04-22T16:04:00.764Z,22.60
2019-04-22T16:07:03.378Z,22.40
2019-04-22T16:17:12.766Z,22.40
2019-04-22T16:20:11.051Z,22.50
2019-04-22T16:34:34.170Z,25.60
2019-04-22T16:47:19.572Z,28.50
2019-04-22T20:10:19.624Z,50.40
2019-04-22T21:29:17.344Z,54.70
2019-04-22T21:32:01.578Z,54.70
2019-04-22T21:35:03.897Z,54.80
2019-04-22T21:37:31.822Z,54.70
2019-04-22T21:40:32.420Z,54.80
2019-04-22T21:43:04.395Z,54.80
2019-04-22T21:45:57.262Z,54.90
2019-04-22T21:48:57.813Z,55.00
2019-04-22T21:56:03.977Z,54.90
2019-04-22T21:58:49.563Z,54.90
2019-04-22T22:02:09.912Z,55.10
2019-04-22T22:05:15.368Z,54.90
2019-04-22T22:08:04.059Z,55.00
2019-04-22T22:11:22.843Z,54.80
2019-04-22T22:14:07.697Z,54.90
2019-04-22T22:16:51.702Z,55.10
2019-04-22T22:19:37.972Z,55.20
2019-04-22T22:25:26.459Z,55.10
2019-04-22T22:28:33.402Z,55.30
2019-04-22T22:31:08.824Z,55.20
2019-04-22T22:33:41.785Z,55.20
2019-04-22T22:37:01.553Z,55.20
2019-04-22T22:40:11.809Z,55.30
2019-04-22T22:43:21.338Z,55.40
2019-04-22T22:46:40.151Z,55.20
2019-04-22T22:49:41.944Z,55.30
2019-04-22T22:52:34.416Z,55.10
2019-04-22T22:54:54.221Z,55.20
2019-04-22T22:57:49.856Z,55.40
2019-04-22T23:00:39.695Z,55.30
2019-04-22T23:03:45.898Z,55.60
2019-04-22T23:06:26.176Z,55.40
2019-04-22T23:09:05.803Z,55.30
2019-04-22T23:12:06.722Z,55.30
2019-04-22T23:14:34.456Z,55.40
2019-04-22T23:16:52.992Z,55.50
2019-04-22T23:19:21.817Z,55.30
2019-04-22T23:22:20.565Z,55.50
2019-04-22T23:25:21.434Z,55.40
2019-04-22T23:28:03.967Z,55.30
2019-04-22T23:34:01.470Z,55.60
2019-04-22T23:37:10.086Z,55.50
2019-04-22T23:40:01.673Z,55.70
2019-04-22T23:45:50.487Z,55.60
2019-04-22T23:48:26.005Z,55.80
2019-04-22T23:51:16.765Z,55.70
2019-04-22T23:54:20.761Z,55.80
2019-04-22T23:56:49.413Z,55.80
2019-04-22T23:59:47.930Z,55.80
